Toledo, Ohio
Current Conditions -  °F | °C
As of 12:53 PM on Wednesday 26 Nov 2014 (Local Time) from KTDZ Reporting Station
Overcast Overcast  
Wind Chill: -2°   Ceiling: 2600
Heat Index:   Visibility: 10mi
Dew Point: -6°   Wind: 6mph
Humidity: 64%   Direction: NA
Pressure: 30.12"   Gusts: NA
Location:  41.65°N, 83.54°W
Report Text: KTDZ 261753Z AUTO VRB05KT 10SM OVC026 01/M06 A3012 RMK AO2 SLP206 T00061056 10006 21017 58018 TSNO
Loading
Personal Weather Stations






























Interactive Weather Map New forecast layout! Learn more

10-Day Weather Forecast

Advertisements
Track Severe Weather on mobile